sensor_id;sensor_type;location;lat;lon;timestamp;P1;durP1;ratioP1;P2;durP2;ratioP2
3819;SDS011;1925;51.356;9.530;2023-02-19T00:00:30;3.67;;;3.30;;
3819;SDS011;1925;51.356;9.530;2023-02-19T00:02:56;3.20;;;2.50;;
3819;SDS011;1925;51.356;9.530;2023-02-19T00:05:22;3.60;;;3.03;;
3819;SDS011;1925;51.356;9.530;2023-02-19T00:07:48;3.50;;;2.90;;
3819;SDS011;1925;51.356;9.530;2023-02-19T00:10:14;3.10;;;2.80;;
3819;SDS011;1925;51.356;9.530;2023-02-19T00:12:40;2.97;;;2.77;;
3819;SDS011;1925;51.356;9.530;2023-02-19T00:15:06;4.27;;;2.87;;
3819;SDS011;1925;51.356;9.530;2023-02-19T00:17:32;3.10;;;2.73;;
3819;SDS011;1925;51.356;9.530;2023-02-19T00:19:58;3.60;;;3.30;;
3819;SDS011;1925;51.356;9.530;2023-02-19T00:22:24;2.70;;;2.50;;
3819;SDS011;1925;51.356;9.530;2023-02-19T00:24:50;2.87;;;2.60;;
3819;SDS011;1925;51.356;9.530;2023-02-19T00:27:16;3.87;;;3.30;;
3819;SDS011;1925;51.356;9.530;2023-02-19T00:29:41;3.00;;;2.70;;
3819;SDS011;1925;51.356;9.530;2023-02-19T00:32:07;3.83;;;3.03;;
3819;SDS011;1925;51.356;9.530;2023-02-19T00:34:33;3.70;;;3.23;;
3819;SDS011;1925;51.356;9.530;2023-02-19T00:36:59;4.03;;;3.63;;
3819;SDS011;1925;51.356;9.530;2023-02-19T00:39:25;4.50;;;3.40;;
3819;SDS011;1925;51.356;9.530;2023-02-19T00:41:51;3.73;;;3.43;;
3819;SDS011;1925;51.356;9.530;2023-02-19T00:44:17;3.70;;;3.40;;
3819;SDS011;1925;51.356;9.530;2023-02-19T00:46:44;3.70;;;3.40;;
3819;SDS011;1925;51.356;9.530;2023-02-19T00:49:14;4.38;;;3.97;;
3819;SDS011;1925;51.356;9.530;2023-02-19T00:51:41;4.65;;;3.30;;
3819;SDS011;1925;51.356;9.530;2023-02-19T00:54:06;5.00;;;4.10;;
3819;SDS011;1925;51.356;9.530;2023-02-19T00:56:33;3.63;;;3.33;;
3819;SDS011;1925;51.356;9.530;2023-02-19T00:58:59;7.13;;;4.20;;
3819;SDS011;1925;51.356;9.530;2023-02-19T01:01:25;4.60;;;4.20;;
3819;SDS011;1925;51.356;9.530;2023-02-19T01:03:51;4.07;;;3.70;;
3819;SDS011;1925;51.356;9.530;2023-02-19T01:06:17;4.70;;;4.30;;
3819;SDS011;1925;51.356;9.530;2023-02-19T01:08:44;4.60;;;3.90;;
3819;SDS011;1925;51.356;9.530;2023-02-19T01:11:10;4.67;;;4.27;;
3819;SDS011;1925;51.356;9.530;2023-02-19T01:13:36;3.67;;;3.20;;
3819;SDS011;1925;51.356;9.530;2023-02-19T01:18:32;3.80;;;3.40;;
3819;SDS011;1925;51.356;9.530;2023-02-19T01:20:58;3.90;;;3.42;;
3819;SDS011;1925;51.356;9.530;2023-02-19T01:23:24;3.53;;;3.20;;
3819;SDS011;1925;51.356;9.530;2023-02-19T01:25:50;3.50;;;3.20;;
3819;SDS011;1925;51.356;9.530;2023-02-19T01:28:16;6.20;;;4.30;;
3819;SDS011;1925;51.356;9.530;2023-02-19T01:30:42;3.90;;;3.50;;
3819;SDS011;1925;51.356;9.530;2023-02-19T01:33:08;3.40;;;3.10;;
3819;SDS011;1925;51.356;9.530;2023-02-19T01:35:37;2.88;;;2.67;;
3819;SDS011;1925;51.356;9.530;2023-02-19T01:38:03;3.42;;;3.13;;
3819;SDS011;1925;51.356;9.530;2023-02-19T01:40:31;3.65;;;2.10;;
3819;SDS011;1925;51.356;9.530;2023-02-19T01:42:57;3.17;;;2.17;;
3819;SDS011;1925;51.356;9.530;2023-02-19T01:47:54;2.63;;;2.15;;
3819;SDS011;1925;51.356;9.530;2023-02-19T01:50:21;2.30;;;2.10;;
3819;SDS011;1925;51.356;9.530;2023-02-19T01:52:47;4.38;;;2.65;;
3819;SDS011;1925;51.356;9.530;2023-02-19T01:55:13;4.20;;;1.97;;
3819;SDS011;1925;51.356;9.530;2023-02-19T01:57:40;2.00;;;1.90;;
3819;SDS011;1925;51.356;9.530;2023-02-19T02:00:09;1.88;;;1.73;;
3819;SDS011;1925;51.356;9.530;2023-02-19T02:02:35;2.30;;;2.10;;
3819;SDS011;1925;51.356;9.530;2023-02-19T02:05:01;1.83;;;1.73;;
3819;SDS011;1925;51.356;9.530;2023-02-19T02:07:27;2.97;;;2.05;;
3819;SDS011;1925;51.356;9.530;2023-02-19T02:10:12;2.33;;;1.85;;
3819;SDS011;1925;51.356;9.530;2023-02-19T02:12:44;2.22;;;2.03;;
3819;SDS011;1925;51.356;9.530;2023-02-19T02:15:10;5.20;;;2.35;;
3819;SDS011;1925;51.356;9.530;2023-02-19T02:17:50;2.20;;;1.98;;
3819;SDS011;1925;51.356;9.530;2023-02-19T02:20:26;1.58;;;1.48;;
3819;SDS011;1925;51.356;9.530;2023-02-19T02:30:56;2.72;;;2.28;;
3819;SDS011;1925;51.356;9.530;2023-02-19T02:35:58;1.73;;;1.52;;
3819;SDS011;1925;51.356;9.530;2023-02-19T02:38:26;1.73;;;1.48;;
3819;SDS011;1925;51.356;9.530;2023-02-19T02:40:53;1.65;;;1.55;;
3819;SDS011;1925;51.356;9.530;2023-02-19T02:43:19;2.17;;;1.98;;
3819;SDS011;1925;51.356;9.530;2023-02-19T02:45:45;3.20;;;1.90;;
3819;SDS011;1925;51.356;9.530;2023-02-19T02:50:41;2.30;;;2.10;;
3819;SDS011;1925;51.356;9.530;2023-02-19T02:53:11;1.77;;;1.40;;
3819;SDS011;1925;51.356;9.530;2023-02-19T02:56:08;1.70;;;1.58;;
3819;SDS011;1925;51.356;9.530;2023-02-19T02:58:34;4.25;;;1.65;;
3819;SDS011;1925;51.356;9.530;2023-02-19T03:01:05;1.60;;;1.50;;
3819;SDS011;1925;51.356;9.530;2023-02-19T03:03:53;1.70;;;1.60;;
3819;SDS011;1925;51.356;9.530;2023-02-19T03:06:20;1.90;;;1.35;;
3819;SDS011;1925;51.356;9.530;2023-02-19T03:08:48;1.98;;;1.70;;
3819;SDS011;1925;51.356;9.530;2023-02-19T03:11:17;4.32;;;1.70;;
3819;SDS011;1925;51.356;9.530;2023-02-19T03:16:54;1.42;;;1.33;;
3819;SDS011;1925;51.356;9.530;2023-02-19T03:19:42;6.18;;;2.10;;
3819;SDS011;1925;51.356;9.530;2023-02-19T03:22:22;1.73;;;1.42;;
3819;SDS011;1925;51.356;9.530;2023-02-19T03:24:51;3.97;;;1.80;;
3819;SDS011;1925;51.356;9.530;2023-02-19T03:27:36;2.63;;;1.55;;
3819;SDS011;1925;51.356;9.530;2023-02-19T03:30:06;2.70;;;1.55;;
3819;SDS011;1925;51.356;9.530;2023-02-19T03:32:39;3.75;;;2.15;;
3819;SDS011;1925;51.356;9.530;2023-02-19T03:35:13;1.75;;;1.55;;
3819;SDS011;1925;51.356;9.530;2023-02-19T03:37:46;2.15;;;1.95;;
3819;SDS011;1925;51.356;9.530;2023-02-19T03:40:15;2.22;;;1.95;;
3819;SDS011;1925;51.356;9.530;2023-02-19T03:47:52;3.75;;;2.45;;
3819;SDS011;1925;51.356;9.530;2023-02-19T03:50:30;3.25;;;2.35;;
3819;SDS011;1925;51.356;9.530;2023-02-19T03:55:36;4.50;;;3.37;;
3819;SDS011;1925;51.356;9.530;2023-02-19T03:58:18;3.90;;;2.95;;
3819;SDS011;1925;51.356;9.530;2023-02-19T04:00:52;6.55;;;3.63;;
3819;SDS011;1925;51.356;9.530;2023-02-19T04:03:23;5.20;;;3.85;;
3819;SDS011;1925;51.356;9.530;2023-02-19T04:06:04;6.93;;;3.78;;
3819;SDS011;1925;51.356;9.530;2023-02-19T04:08:32;3.00;;;2.60;;
3819;SDS011;1925;51.356;9.530;2023-02-19T04:10:59;6.65;;;3.30;;
3819;SDS011;1925;51.356;9.530;2023-02-19T04:13:27;3.83;;;3.30;;
3819;SDS011;1925;51.356;9.530;2023-02-19T04:15:56;3.60;;;2.13;;
3819;SDS011;1925;51.356;9.530;2023-02-19T04:18:25;1.70;;;1.33;;
3819;SDS011;1925;51.356;9.530;2023-02-19T04:20:52;3.10;;;1.83;;
3819;SDS011;1925;51.356;9.530;2023-02-19T04:23:21;1.80;;;1.70;;
3819;SDS011;1925;51.356;9.530;2023-02-19T04:25:48;2.65;;;1.80;;
3819;SDS011;1925;51.356;9.530;2023-02-19T04:28:15;3.78;;;2.05;;
3819;SDS011;1925;51.356;9.530;2023-02-19T04:30:42;2.25;;;1.90;;
3819;SDS011;1925;51.356;9.530;2023-02-19T04:33:08;2.17;;;1.75;;
3819;SDS011;1925;51.356;9.530;2023-02-19T04:35:34;1.98;;;1.77;;
3819;SDS011;1925;51.356;9.530;2023-02-19T04:38:00;5.10;;;2.00;;
3819;SDS011;1925;51.356;9.530;2023-02-19T04:40:26;2.58;;;2.30;;
3819;SDS011;1925;51.356;9.530;2023-02-19T04:42:52;5.13;;;1.80;;
3819;SDS011;1925;51.356;9.530;2023-02-19T04:45:18;8.63;;;1.77;;
3819;SDS011;1925;51.356;9.530;2023-02-19T04:47:44;2.17;;;1.60;;
3819;SDS011;1925;51.356;9.530;2023-02-19T04:50:10;2.53;;;1.57;;
3819;SDS011;1925;51.356;9.530;2023-02-19T04:52:35;4.90;;;2.40;;
3819;SDS011;1925;51.356;9.530;2023-02-19T04:55:01;2.00;;;1.60;;
3819;SDS011;1925;51.356;9.530;2023-02-19T04:57:28;5.50;;;3.05;;
3819;SDS011;1925;51.356;9.530;2023-02-19T04:59:54;2.67;;;2.07;;
3819;SDS011;1925;51.356;9.530;2023-02-19T05:02:20;2.93;;;2.00;;
3819;SDS011;1925;51.356;9.530;2023-02-19T05:04:45;3.17;;;2.20;;
3819;SDS011;1925;51.356;9.530;2023-02-19T05:07:11;2.53;;;1.57;;
3819;SDS011;1925;51.356;9.530;2023-02-19T05:09:37;1.93;;;1.63;;
3819;SDS011;1925;51.356;9.530;2023-02-19T05:12:03;3.27;;;2.47;;
3819;SDS011;1925;51.356;9.530;2023-02-19T05:14:29;2.65;;;2.13;;
3819;SDS011;1925;51.356;9.530;2023-02-19T05:16:55;3.10;;;1.97;;
3819;SDS011;1925;51.356;9.530;2023-02-19T05:19:21;3.60;;;2.40;;
3819;SDS011;1925;51.356;9.530;2023-02-19T05:21:47;2.90;;;2.40;;
3819;SDS011;1925;51.356;9.530;2023-02-19T05:24:13;3.17;;;2.17;;
3819;SDS011;1925;51.356;9.530;2023-02-19T05:26:39;6.40;;;2.47;;
3819;SDS011;1925;51.356;9.530;2023-02-19T05:29:05;3.07;;;2.17;;
3819;SDS011;1925;51.356;9.530;2023-02-19T05:31:31;2.43;;;2.00;;
3819;SDS011;1925;51.356;9.530;2023-02-19T05:34:00;2.30;;;1.90;;
3819;SDS011;1925;51.356;9.530;2023-02-19T05:36:26;2.90;;;2.17;;
3819;SDS011;1925;51.356;9.530;2023-02-19T05:38:53;3.40;;;2.57;;
3819;SDS011;1925;51.356;9.530;2023-02-19T05:41:20;2.53;;;2.15;;
3819;SDS011;1925;51.356;9.530;2023-02-19T05:43:47;3.55;;;2.67;;
3819;SDS011;1925;51.356;9.530;2023-02-19T05:46:14;4.15;;;3.17;;
3819;SDS011;1925;51.356;9.530;2023-02-19T05:48:40;3.13;;;2.67;;
3819;SDS011;1925;51.356;9.530;2023-02-19T05:51:08;5.20;;;2.50;;
3819;SDS011;1925;51.356;9.530;2023-02-19T05:53:34;3.72;;;3.33;;
3819;SDS011;1925;51.356;9.530;2023-02-19T05:56:00;4.32;;;2.67;;
3819;SDS011;1925;51.356;9.530;2023-02-19T05:58:27;4.68;;;3.25;;
3819;SDS011;1925;51.356;9.530;2023-02-19T06:00:53;5.65;;;3.40;;
3819;SDS011;1925;51.356;9.530;2023-02-19T06:03:19;4.35;;;3.45;;
3819;SDS011;1925;51.356;9.530;2023-02-19T06:05:45;4.43;;;3.33;;
3819;SDS011;1925;51.356;9.530;2023-02-19T06:08:12;5.13;;;3.60;;
3819;SDS011;1925;51.356;9.530;2023-02-19T06:10:38;4.28;;;3.58;;
3819;SDS011;1925;51.356;9.530;2023-02-19T06:13:05;4.13;;;3.50;;
3819;SDS011;1925;51.356;9.530;2023-02-19T06:15:31;3.88;;;3.03;;
3819;SDS011;1925;51.356;9.530;2023-02-19T06:17:57;4.90;;;3.10;;
3819;SDS011;1925;51.356;9.530;2023-02-19T06:20:23;3.77;;;3.47;;
3819;SDS011;1925;51.356;9.530;2023-02-19T06:22:50;3.77;;;3.30;;
3819;SDS011;1925;51.356;9.530;2023-02-19T06:25:16;4.55;;;3.10;;
3819;SDS011;1925;51.356;9.530;2023-02-19T06:27:42;2.85;;;2.20;;
3819;SDS011;1925;51.356;9.530;2023-02-19T06:30:08;4.53;;;2.90;;
3819;SDS011;1925;51.356;9.530;2023-02-19T06:32:34;2.83;;;2.63;;
3819;SDS011;1925;51.356;9.530;2023-02-19T06:35:00;2.93;;;2.70;;
3819;SDS011;1925;51.356;9.530;2023-02-19T06:37:26;4.85;;;3.08;;
3819;SDS011;1925;51.356;9.530;2023-02-19T06:39:52;2.87;;;2.57;;
3819;SDS011;1925;51.356;9.530;2023-02-19T06:42:18;3.50;;;2.93;;
3819;SDS011;1925;51.356;9.530;2023-02-19T06:44:44;3.60;;;2.67;;
3819;SDS011;1925;51.356;9.530;2023-02-19T06:47:10;2.70;;;2.20;;
3819;SDS011;1925;51.356;9.530;2023-02-19T06:49:37;4.87;;;3.40;;
3819;SDS011;1925;51.356;9.530;2023-02-19T06:52:03;4.13;;;2.50;;
3819;SDS011;1925;51.356;9.530;2023-02-19T06:54:30;3.40;;;2.53;;
3819;SDS011;1925;51.356;9.530;2023-02-19T06:56:57;3.40;;;2.63;;
3819;SDS011;1925;51.356;9.530;2023-02-19T06:59:23;4.50;;;2.85;;
3819;SDS011;1925;51.356;9.530;2023-02-19T07:01:50;7.68;;;3.45;;
3819;SDS011;1925;51.356;9.530;2023-02-19T07:04:16;3.30;;;3.00;;
3819;SDS011;1925;51.356;9.530;2023-02-19T07:06:42;3.53;;;2.60;;
3819;SDS011;1925;51.356;9.530;2023-02-19T07:09:08;6.20;;;3.50;;
3819;SDS011;1925;51.356;9.530;2023-02-19T07:11:35;4.68;;;2.50;;
3819;SDS011;1925;51.356;9.530;2023-02-19T07:14:02;3.17;;;2.88;;
3819;SDS011;1925;51.356;9.530;2023-02-19T07:16:29;2.90;;;2.42;;
3819;SDS011;1925;51.356;9.530;2023-02-19T07:18:55;3.33;;;3.00;;
3819;SDS011;1925;51.356;9.530;2023-02-19T07:21:22;3.00;;;2.70;;
3819;SDS011;1925;51.356;9.530;2023-02-19T07:23:48;2.50;;;2.30;;
3819;SDS011;1925;51.356;9.530;2023-02-19T07:26:15;3.90;;;2.87;;
3819;SDS011;1925;51.356;9.530;2023-02-19T07:28:42;4.07;;;2.50;;
3819;SDS011;1925;51.356;9.530;2023-02-19T07:31:08;3.65;;;3.05;;
3819;SDS011;1925;51.356;9.530;2023-02-19T07:33:34;4.90;;;2.57;;
3819;SDS011;1925;51.356;9.530;2023-02-19T07:36:00;2.87;;;2.53;;
3819;SDS011;1925;51.356;9.530;2023-02-19T07:38:26;3.70;;;2.93;;
3819;SDS011;1925;51.356;9.530;2023-02-19T07:40:57;3.35;;;3.05;;
3819;SDS011;1925;51.356;9.530;2023-02-19T07:43:24;4.80;;;3.35;;
3819;SDS011;1925;51.356;9.530;2023-02-19T07:45:50;3.20;;;2.90;;
3819;SDS011;1925;51.356;9.530;2023-02-19T07:48:16;4.75;;;3.20;;
3819;SDS011;1925;51.356;9.530;2023-02-19T07:50:49;3.05;;;2.30;;
3819;SDS011;1925;51.356;9.530;2023-02-19T07:53:15;3.95;;;2.90;;
3819;SDS011;1925;51.356;9.530;2023-02-19T07:55:41;8.60;;;3.20;;
3819;SDS011;1925;51.356;9.530;2023-02-19T07:58:07;4.47;;;2.73;;
3819;SDS011;1925;51.356;9.530;2023-02-19T08:00:33;4.00;;;2.60;;
3819;SDS011;1925;51.356;9.530;2023-02-19T08:02:59;3.40;;;2.50;;
3819;SDS011;1925;51.356;9.530;2023-02-19T08:05:26;10.80;;;2.90;;
3819;SDS011;1925;51.356;9.530;2023-02-19T08:07:52;2.95;;;2.05;;
3819;SDS011;1925;51.356;9.530;2023-02-19T08:10:18;4.25;;;2.42;;
3819;SDS011;1925;51.356;9.530;2023-02-19T08:13:03;3.95;;;2.88;;
3819;SDS011;1925;51.356;9.530;2023-02-19T08:15:47;3.50;;;2.30;;
3819;SDS011;1925;51.356;9.530;2023-02-19T08:18:13;3.53;;;2.25;;
3819;SDS011;1925;51.356;9.530;2023-02-19T08:20:40;3.00;;;2.60;;
3819;SDS011;1925;51.356;9.530;2023-02-19T08:23:07;2.40;;;2.20;;
3819;SDS011;1925;51.356;9.530;2023-02-19T08:25:33;2.80;;;2.42;;
3819;SDS011;1925;51.356;9.530;2023-02-19T08:27:59;3.00;;;2.65;;
3819;SDS011;1925;51.356;9.530;2023-02-19T08:30:25;2.88;;;2.28;;
3819;SDS011;1925;51.356;9.530;2023-02-19T08:32:51;2.30;;;1.90;;
3819;SDS011;1925;51.356;9.530;2023-02-19T08:35:17;4.18;;;2.22;;
3819;SDS011;1925;51.356;9.530;2023-02-19T08:37:43;2.53;;;2.33;;
3819;SDS011;1925;51.356;9.530;2023-02-19T08:40:10;3.60;;;2.72;;
3819;SDS011;1925;51.356;9.530;2023-02-19T08:42:36;9.60;;;3.22;;
3819;SDS011;1925;51.356;9.530;2023-02-19T08:45:02;4.50;;;3.00;;
3819;SDS011;1925;51.356;9.530;2023-02-19T08:47:28;3.30;;;2.90;;
3819;SDS011;1925;51.356;9.530;2023-02-19T08:49:54;4.05;;;3.03;;
3819;SDS011;1925;51.356;9.530;2023-02-19T08:52:20;4.07;;;2.70;;
3819;SDS011;1925;51.356;9.530;2023-02-19T08:54:46;4.80;;;3.00;;
3819;SDS011;1925;51.356;9.530;2023-02-19T08:57:12;6.93;;;2.60;;
3819;SDS011;1925;51.356;9.530;2023-02-19T08:59:38;3.40;;;2.27;;
3819;SDS011;1925;51.356;9.530;2023-02-19T09:02:04;1.87;;;1.60;;
3819;SDS011;1925;51.356;9.530;2023-02-19T09:04:30;1.52;;;1.27;;
3819;SDS011;1925;51.356;9.530;2023-02-19T09:06:56;1.60;;;1.00;;
3819;SDS011;1925;51.356;9.530;2023-02-19T09:09:22;1.20;;;0.70;;
3819;SDS011;1925;51.356;9.530;2023-02-19T09:11:48;0.83;;;0.73;;
3819;SDS011;1925;51.356;9.530;2023-02-19T09:14:14;0.83;;;0.63;;
3819;SDS011;1925;51.356;9.530;2023-02-19T09:16:40;0.80;;;0.60;;
3819;SDS011;1925;51.356;9.530;2023-02-19T09:19:05;0.70;;;0.60;;
3819;SDS011;1925;51.356;9.530;2023-02-19T09:21:31;0.83;;;0.67;;
3819;SDS011;1925;51.356;9.530;2023-02-19T09:23:57;0.80;;;0.67;;
3819;SDS011;1925;51.356;9.530;2023-02-19T09:26:23;0.60;;;0.40;;
3819;SDS011;1925;51.356;9.530;2023-02-19T09:28:49;0.80;;;0.50;;
3819;SDS011;1925;51.356;9.530;2023-02-19T09:31:15;0.70;;;0.47;;
3819;SDS011;1925;51.356;9.530;2023-02-19T09:33:42;0.60;;;0.43;;
3819;SDS011;1925;51.356;9.530;2023-02-19T09:36:08;0.70;;;0.43;;
3819;SDS011;1925;51.356;9.530;2023-02-19T09:38:34;0.60;;;0.40;;
3819;SDS011;1925;51.356;9.530;2023-02-19T09:41:24;0.70;;;0.50;;
3819;SDS011;1925;51.356;9.530;2023-02-19T09:43:46;0.73;;;0.40;;
3819;SDS011;1925;51.356;9.530;2023-02-19T09:48:54;1.17;;;0.40;;
3819;SDS011;1925;51.356;9.530;2023-02-19T09:51:22;1.05;;;0.50;;
3819;SDS011;1925;51.356;9.530;2023-02-19T09:53:50;0.70;;;0.60;;
3819;SDS011;1925;51.356;9.530;2023-02-19T09:56:16;1.10;;;0.75;;
3819;SDS011;1925;51.356;9.530;2023-02-19T09:58:45;0.70;;;0.52;;
3819;SDS011;1925;51.356;9.530;2023-02-19T10:01:12;0.80;;;0.70;;
3819;SDS011;1925;51.356;9.530;2023-02-19T10:03:39;1.00;;;0.75;;
3819;SDS011;1925;51.356;9.530;2023-02-19T10:06:10;0.82;;;0.70;;
3819;SDS011;1925;51.356;9.530;2023-02-19T10:08:38;1.05;;;0.82;;
3819;SDS011;1925;51.356;9.530;2023-02-19T10:11:04;1.10;;;0.90;;
3819;SDS011;1925;51.356;9.530;2023-02-19T10:13:40;0.70;;;0.60;;
3819;SDS011;1925;51.356;9.530;2023-02-19T10:16:10;1.00;;;0.73;;
3819;SDS011;1925;51.356;9.530;2023-02-19T10:18:40;1.45;;;0.85;;
3819;SDS011;1925;51.356;9.530;2023-02-19T10:21:09;1.15;;;1.00;;
3819;SDS011;1925;51.356;9.530;2023-02-19T10:23:35;1.65;;;1.15;;
3819;SDS011;1925;51.356;9.530;2023-02-19T10:26:01;1.33;;;0.83;;
3819;SDS011;1925;51.356;9.530;2023-02-19T10:28:28;1.07;;;0.97;;
3819;SDS011;1925;51.356;9.530;2023-02-19T10:30:56;1.60;;;0.95;;
3819;SDS011;1925;51.356;9.530;2023-02-19T10:33:22;1.25;;;1.15;;
3819;SDS011;1925;51.356;9.530;2023-02-19T10:38:14;2.13;;;1.00;;
3819;SDS011;1925;51.356;9.530;2023-02-19T10:40:42;0.90;;;0.70;;
3819;SDS011;1925;51.356;9.530;2023-02-19T10:43:08;3.45;;;0.80;;
3819;SDS011;1925;51.356;9.530;2023-02-19T10:45:44;1.10;;;0.90;;
3819;SDS011;1925;51.356;9.530;2023-02-19T10:48:20;1.00;;;0.90;;
3819;SDS011;1925;51.356;9.530;2023-02-19T10:50:50;1.05;;;0.90;;
3819;SDS011;1925;51.356;9.530;2023-02-19T10:53:20;1.00;;;0.90;;
3819;SDS011;1925;51.356;9.530;2023-02-19T10:56:04;0.90;;;0.75;;
3819;SDS011;1925;51.356;9.530;2023-02-19T10:58:31;0.80;;;0.70;;
3819;SDS011;1925;51.356;9.530;2023-02-19T11:03:45;1.00;;;0.70;;
3819;SDS011;1925;51.356;9.530;2023-02-19T11:06:12;0.90;;;0.80;;
3819;SDS011;1925;51.356;9.530;2023-02-19T11:11:05;0.80;;;0.70;;
3819;SDS011;1925;51.356;9.530;2023-02-19T11:13:31;1.08;;;0.90;;
3819;SDS011;1925;51.356;9.530;2023-02-19T11:16:01;0.73;;;0.70;;
3819;SDS011;1925;51.356;9.530;2023-02-19T11:18:30;0.70;;;0.63;;
3819;SDS011;1925;51.356;9.530;2023-02-19T11:20:57;1.90;;;0.60;;
3819;SDS011;1925;51.356;9.530;2023-02-19T11:23:30;0.80;;;0.50;;
3819;SDS011;1925;51.356;9.530;2023-02-19T11:25:58;0.70;;;0.60;;
3819;SDS011;1925;51.356;9.530;2023-02-19T11:33:42;1.00;;;0.80;;
3819;SDS011;1925;51.356;9.530;2023-02-19T11:38:41;0.70;;;0.60;;
3819;SDS011;1925;51.356;9.530;2023-02-19T11:46:28;1.10;;;0.95;;
3819;SDS011;1925;51.356;9.530;2023-02-19T11:56:40;1.55;;;0.85;;
3819;SDS011;1925;51.356;9.530;2023-02-19T11:59:14;1.65;;;0.85;;
3819;SDS011;1925;51.356;9.530;2023-02-19T12:01:46;0.90;;;0.80;;
3819;SDS011;1925;51.356;9.530;2023-02-19T12:14:57;1.45;;;0.60;;
3819;SDS011;1925;51.356;9.530;2023-02-19T12:17:37;2.78;;;0.70;;
3819;SDS011;1925;51.356;9.530;2023-02-19T12:20:11;1.25;;;0.80;;
3819;SDS011;1925;51.356;9.530;2023-02-19T12:33:40;1.15;;;1.05;;
3819;SDS011;1925;51.356;9.530;2023-02-19T12:38:42;3.58;;;2.08;;
3819;SDS011;1925;51.356;9.530;2023-02-19T12:43:55;1.88;;;1.70;;
3819;SDS011;1925;51.356;9.530;2023-02-19T12:46:38;1.20;;;1.10;;
3819;SDS011;1925;51.356;9.530;2023-02-19T12:49:08;1.10;;;1.00;;
3819;SDS011;1925;51.356;9.530;2023-02-19T12:51:37;1.33;;;1.02;;
3819;SDS011;1925;51.356;9.530;2023-02-19T12:54:11;1.08;;;0.98;;
3819;SDS011;1925;51.356;9.530;2023-02-19T12:56:41;2.08;;;0.90;;
3819;SDS011;1925;51.356;9.530;2023-02-19T12:59:10;2.63;;;1.90;;
3819;SDS011;1925;51.356;9.530;2023-02-19T13:01:38;5.88;;;4.80;;
3819;SDS011;1925;51.356;9.530;2023-02-19T13:04:13;3.40;;;3.10;;
3819;SDS011;1925;51.356;9.530;2023-02-19T13:06:43;1.80;;;1.70;;
3819;SDS011;1925;51.356;9.530;2023-02-19T13:09:10;1.10;;;1.00;;
3819;SDS011;1925;51.356;9.530;2023-02-19T13:11:40;1.23;;;1.13;;
3819;SDS011;1925;51.356;9.530;2023-02-19T13:14:12;0.80;;;0.70;;
3819;SDS011;1925;51.356;9.530;2023-02-19T13:16:40;1.42;;;1.30;;
3819;SDS011;1925;51.356;9.530;2023-02-19T13:19:08;1.23;;;1.13;;
3819;SDS011;1925;51.356;9.530;2023-02-19T13:21:35;1.63;;;1.33;;
3819;SDS011;1925;51.356;9.530;2023-02-19T13:24:22;2.42;;;2.10;;
3819;SDS011;1925;51.356;9.530;2023-02-19T13:32:37;2.42;;;1.60;;
3819;SDS011;1925;51.356;9.530;2023-02-19T13:35:18;0.90;;;0.80;;
3819;SDS011;1925;51.356;9.530;2023-02-19T13:37:46;0.93;;;0.80;;
3819;SDS011;1925;51.356;9.530;2023-02-19T13:40:21;1.80;;;0.70;;
3819;SDS011;1925;51.356;9.530;2023-02-19T13:42:53;1.10;;;0.80;;
3819;SDS011;1925;51.356;9.530;2023-02-19T13:45:21;1.60;;;0.70;;
3819;SDS011;1925;51.356;9.530;2023-02-19T13:47:48;1.73;;;1.30;;
3819;SDS011;1925;51.356;9.530;2023-02-19T13:50:27;1.20;;;0.73;;
3819;SDS011;1925;51.356;9.530;2023-02-19T13:52:54;1.35;;;1.02;;
3819;SDS011;1925;51.356;9.530;2023-02-19T13:55:42;2.85;;;1.30;;
3819;SDS011;1925;51.356;9.530;2023-02-19T13:58:50;0.95;;;0.75;;
3819;SDS011;1925;51.356;9.530;2023-02-19T14:01:08;1.33;;;0.82;;
3819;SDS011;1925;51.356;9.530;2023-02-19T14:03:54;1.95;;;0.80;;
3819;SDS011;1925;51.356;9.530;2023-02-19T14:07:01;1.00;;;0.80;;
3819;SDS011;1925;51.356;9.530;2023-02-19T14:19:58;4.10;;;1.50;;
3819;SDS011;1925;51.356;9.530;2023-02-19T14:25:28;0.80;;;0.80;;
3819;SDS011;1925;51.356;9.530;2023-02-19T14:33:08;1.33;;;1.23;;
3819;SDS011;1925;51.356;9.530;2023-02-19T14:35:36;1.65;;;1.52;;
3819;SDS011;1925;51.356;9.530;2023-02-19T14:38:02;1.10;;;1.00;;
3819;SDS011;1925;51.356;9.530;2023-02-19T14:40:31;1.52;;;1.08;;
3819;SDS011;1925;51.356;9.530;2023-02-19T14:42:58;1.92;;;1.63;;
3819;SDS011;1925;51.356;9.530;2023-02-19T14:45:26;1.55;;;1.40;;
3819;SDS011;1925;51.356;9.530;2023-02-19T14:47:52;1.38;;;1.27;;
3819;SDS011;1925;51.356;9.530;2023-02-19T14:50:24;2.08;;;1.65;;
3819;SDS011;1925;51.356;9.530;2023-02-19T14:52:52;2.90;;;1.80;;
3819;SDS011;1925;51.356;9.530;2023-02-19T14:55:24;2.05;;;1.30;;
3819;SDS011;1925;51.356;9.530;2023-02-19T14:57:51;2.08;;;1.50;;
3819;SDS011;1925;51.356;9.530;2023-02-19T15:02:47;2.00;;;1.60;;
3819;SDS011;1925;51.356;9.530;2023-02-19T15:05:14;4.07;;;2.45;;
3819;SDS011;1925;51.356;9.530;2023-02-19T15:07:40;2.28;;;2.05;;
3819;SDS011;1925;51.356;9.530;2023-02-19T15:10:06;2.40;;;2.13;;
3819;SDS011;1925;51.356;9.530;2023-02-19T15:12:35;2.78;;;1.73;;
3819;SDS011;1925;51.356;9.530;2023-02-19T15:15:04;1.60;;;1.50;;
3819;SDS011;1925;51.356;9.530;2023-02-19T15:17:31;1.40;;;1.30;;
3819;SDS011;1925;51.356;9.530;2023-02-19T15:19:59;2.45;;;1.42;;
3819;SDS011;1925;51.356;9.530;2023-02-19T15:22:27;1.67;;;1.58;;
3819;SDS011;1925;51.356;9.530;2023-02-19T15:24:55;2.65;;;1.50;;
3819;SDS011;1925;51.356;9.530;2023-02-19T15:27:24;2.47;;;1.45;;
3819;SDS011;1925;51.356;9.530;2023-02-19T15:29:50;2.87;;;1.53;;
3819;SDS011;1925;51.356;9.530;2023-02-19T15:32:20;2.80;;;1.23;;
3819;SDS011;1925;51.356;9.530;2023-02-19T15:34:57;3.47;;;2.17;;
3819;SDS011;1925;51.356;9.530;2023-02-19T15:37:23;2.67;;;1.40;;
3819;SDS011;1925;51.356;9.530;2023-02-19T15:39:50;1.60;;;1.42;;
3819;SDS011;1925;51.356;9.530;2023-02-19T15:42:19;1.98;;;1.77;;
3819;SDS011;1925;51.356;9.530;2023-02-19T15:47:43;1.75;;;1.48;;
3819;SDS011;1925;51.356;9.530;2023-02-19T15:50:11;2.08;;;1.88;;
3819;SDS011;1925;51.356;9.530;2023-02-19T15:55:07;2.60;;;2.40;;
3819;SDS011;1925;51.356;9.530;2023-02-19T15:57:38;1.85;;;1.75;;
3819;SDS011;1925;51.356;9.530;2023-02-19T16:00:11;2.80;;;2.58;;
3819;SDS011;1925;51.356;9.530;2023-02-19T16:02:39;3.92;;;2.80;;
3819;SDS011;1925;51.356;9.530;2023-02-19T16:05:15;3.50;;;3.20;;
3819;SDS011;1925;51.356;9.530;2023-02-19T16:07:54;1.80;;;1.70;;
3819;SDS011;1925;51.356;9.530;2023-02-19T16:10:29;3.10;;;2.00;;
3819;SDS011;1925;51.356;9.530;2023-02-19T16:12:57;1.60;;;1.50;;
3819;SDS011;1925;51.356;9.530;2023-02-19T16:15:24;2.50;;;1.80;;
3819;SDS011;1925;51.356;9.530;2023-02-19T16:17:50;1.77;;;1.67;;
3819;SDS011;1925;51.356;9.530;2023-02-19T16:20:20;2.13;;;1.92;;
3819;SDS011;1925;51.356;9.530;2023-02-19T16:22:47;3.25;;;2.20;;
3819;SDS011;1925;51.356;9.530;2023-02-19T16:25:23;2.90;;;2.70;;
3819;SDS011;1925;51.356;9.530;2023-02-19T16:27:50;4.72;;;2.78;;
3819;SDS011;1925;51.356;9.530;2023-02-19T16:33:17;2.75;;;2.55;;
3819;SDS011;1925;51.356;9.530;2023-02-19T16:35:35;3.80;;;3.50;;
3819;SDS011;1925;51.356;9.530;2023-02-19T16:38:01;4.80;;;4.38;;
3819;SDS011;1925;51.356;9.530;2023-02-19T16:45:28;3.47;;;3.17;;
3819;SDS011;1925;51.356;9.530;2023-02-19T16:47:54;5.33;;;2.77;;
3819;SDS011;1925;51.356;9.530;2023-02-19T16:50:21;2.60;;;2.37;;
3819;SDS011;1925;51.356;9.530;2023-02-19T16:53:00;2.20;;;2.00;;
3819;SDS011;1925;51.356;9.530;2023-02-19T16:55:27;3.22;;;1.83;;
3819;SDS011;1925;51.356;9.530;2023-02-19T16:57:53;2.80;;;2.60;;
3819;SDS011;1925;51.356;9.530;2023-02-19T17:00:23;4.60;;;3.80;;
3819;SDS011;1925;51.356;9.530;2023-02-19T17:02:53;6.65;;;3.80;;
3819;SDS011;1925;51.356;9.530;2023-02-19T17:05:20;5.15;;;3.75;;
3819;SDS011;1925;51.356;9.530;2023-02-19T17:07:47;7.75;;;3.83;;
3819;SDS011;1925;51.356;9.530;2023-02-19T17:10:17;2.58;;;2.25;;
3819;SDS011;1925;51.356;9.530;2023-02-19T17:12:43;2.58;;;2.38;;
3819;SDS011;1925;51.356;9.530;2023-02-19T17:15:10;4.50;;;2.27;;
3819;SDS011;1925;51.356;9.530;2023-02-19T17:17:36;3.28;;;2.97;;
3819;SDS011;1925;51.356;9.530;2023-02-19T17:20:05;7.33;;;5.50;;
3819;SDS011;1925;51.356;9.530;2023-02-19T17:22:37;3.67;;;3.05;;
3819;SDS011;1925;51.356;9.530;2023-02-19T17:25:03;4.77;;;4.20;;
3819;SDS011;1925;51.356;9.530;2023-02-19T17:27:29;4.30;;;3.90;;
3819;SDS011;1925;51.356;9.530;2023-02-19T17:29:55;7.30;;;3.90;;